Time;durP1;ratioP1;P1;durP2;ratioP2;P2;SDS_P1;SDS_P2;PMS_P1;PMS_P2;Temp;Humidity;BMP_temperature;BMP_pressure;BME280_temperature;BME280_humidity;BME280_pressure;Samples;Min_cycle;Max_cycle;Signal;HPM_P1;HPM_P2
2021/11/14 00:01:04;;;;;;;1.52;1.52;;;;;;;2.82;76.12;101265.34;6332900;22;20011;-73
2021/11/14 00:03:30;;;;;;;1.63;1.63;;;;;;;2.81;75.78;101263.66;6332550;22;20091;-73
2021/11/14 00:05:56;;;;;;;1.80;1.80;;;;;;;2.78;75.52;101258.47;6279726;22;20019;-72
2021/11/14 00:08:23;;;;;;;1.90;1.80;;;;;;;2.75;76.10;101255.91;6305649;22;20011;-72
2021/11/14 00:10:54;;;;;;;0.80;0.80;;;;;;;2.74;75.97;101266.22;6332753;22;20466;-72
2021/11/14 00:13:21;;;;;;;1.52;1.42;;;;;;;2.77;76.04;101259.34;6331278;22;20019;-72
2021/11/14 00:15:47;;;;;;;1.10;1.10;;;;;;;2.71;75.95;101264.50;6304902;22;20019;-72
2021/11/14 00:18:13;;;;;;;1.30;1.30;;;;;;;2.70;76.31;101261.91;6332329;22;20022;-73
2021/11/14 00:20:39;;;;;;;1.65;1.65;;;;;;;2.65;76.00;101267.06;6330630;22;20136;-73
2021/11/14 00:23:05;;;;;;;1.23;1.23;;;;;;;2.61;76.11;101268.81;6330952;22;20490;-74
2021/11/14 00:25:31;;;;;;;1.40;1.40;;;;;;;2.61;75.80;101270.53;6304832;22;20025;-74
2021/11/14 00:27:58;;;;;;;1.52;1.52;;;;;;;2.62;75.42;101269.66;6332347;22;20014;-74
2021/11/14 00:30:31;;;;;;;1.15;1.15;;;;;;;2.59;74.97;101267.94;6330880;22;20018;-74
2021/11/14 00:32:57;;;;;;;4.03;1.92;;;;;;;2.57;75.44;101261.06;6304808;22;20400;-73
2021/11/14 00:35:23;;;;;;;1.60;1.50;;;;;;;2.60;75.08;101271.38;6330999;22;20021;-73
2021/11/14 00:37:49;;;;;;;1.13;1.13;;;;;;;2.60;75.04;101266.22;6332104;22;20366;-73
2021/11/14 00:40:20;;;;;;;1.73;1.63;;;;;;;2.57;75.27;101263.66;6331244;22;20018;-73
2021/11/14 00:42:46;;;;;;;3.65;1.65;;;;;;;2.53;75.18;101272.22;6305273;22;20105;-73
2021/11/14 00:45:12;;;;;;;1.52;1.50;;;;;;;2.56;74.62;101272.22;6334338;22;20046;-73
2021/11/14 00:47:38;;;;;;;6.43;1.55;;;;;;;2.55;73.37;101267.94;6332986;22;20015;-73
2021/11/14 00:50:10;;;;;;;0.80;0.80;;;;;;;2.54;73.56;101268.81;6306097;22;20022;-73
2021/11/14 00:52:36;;;;;;;2.30;2.10;;;;;;;2.53;71.92;101274.81;6330959;22;20019;-73
2021/11/14 00:55:03;;;;;;;0.98;0.98;;;;;;;2.57;71.78;101266.22;6304815;22;20014;-74
2021/11/14 00:57:29;;;;;;;1.20;1.20;;;;;;;2.61;72.56;101275.69;6330817;22;20027;-73
2021/11/14 00:59:55;;;;;;;0.90;0.90;;;;;;;2.57;73.13;101273.94;6331075;22;20068;-74
2021/11/14 01:02:22;;;;;;;1.63;1.52;;;;;;;2.53;73.33;101269.66;6332293;22;20046;-73
2021/11/14 01:04:48;;;;;;;0.60;0.60;;;;;;;2.55;73.07;101275.69;6330383;22;20025;-73
2021/11/14 01:07:14;;;;;;;0.80;0.80;;;;;;;2.53;73.32;101277.38;6332144;22;20018;-74
2021/11/14 01:09:40;;;;;;;1.00;1.00;;;;;;;2.52;72.99;101275.69;6331511;22;20366;-73
2021/11/14 01:12:07;;;;;;;1.48;1.48;;;;;;;2.51;73.36;101279.97;6332450;22;20038;-73
2021/11/14 01:14:33;;;;;;;1.50;1.40;;;;;;;2.51;73.46;101273.97;6331787;22;20015;-74
2021/11/14 01:16:59;;;;;;;1.95;1.92;;;;;;;2.53;73.63;101278.25;6332141;22;20015;-73
2021/11/14 01:19:25;;;;;;;1.30;1.30;;;;;;;2.52;74.07;101271.34;6330686;22;20049;-73
2021/11/14 01:21:51;;;;;;;0.80;0.80;;;;;;;2.55;74.17;101275.69;6331824;22;20050;-73
2021/11/14 01:24:17;;;;;;;1.30;1.30;;;;;;;2.56;74.07;101283.41;6332391;22;20015;-74
2021/11/14 01:26:43;;;;;;;1.33;1.33;;;;;;;2.54;73.97;101284.25;6330431;22;20057;-74
2021/11/14 01:29:09;;;;;;;0.80;0.80;;;;;;;2.45;74.39;101279.09;6330444;22;20060;-74
2021/11/14 01:31:35;;;;;;;0.80;0.80;;;;;;;2.47;74.41;101283.41;6331646;22;20018;-74
2021/11/14 01:34:01;;;;;;;1.38;1.15;;;;;;;2.47;74.56;101283.41;6330434;22;20022;-75
2021/11/14 01:36:32;;;;;;;0.90;0.90;;;;;;;2.52;74.36;101291.16;6304745;22;20069;-73
2021/11/14 01:39:03;;;;;;;1.23;1.23;;;;;;;2.51;74.30;101294.56;6331857;22;20722;-73
2021/11/14 01:41:29;;;;;;;0.68;0.68;;;;;;;2.51;74.17;101294.56;6330692;22;20023;-74
2021/11/14 01:43:56;;;;;;;0.73;0.73;;;;;;;2.51;74.40;101295.44;6278444;22;20025;-73
2021/11/14 01:46:22;;;;;;;1.33;1.33;;;;;;;2.45;74.56;101286.84;6332011;22;20481;-71
2021/11/14 01:48:48;;;;;;;0.77;0.77;;;;;;;2.50;74.53;101292.84;6330865;22;20102;-71
2021/11/14 01:51:14;;;;;;;0.88;0.88;;;;;;;2.44;74.73;101292.84;6305663;22;20022;-72
2021/11/14 01:53:40;;;;;;;1.02;1.02;;;;;;;2.39;74.72;101297.16;6333845;22;20025;-73
2021/11/14 01:56:12;;;;;;;0.80;0.80;;;;;;;2.44;74.44;101295.41;6332382;22;20452;-73
2021/11/14 01:58:38;;;;;;;0.50;0.50;;;;;;;2.49;74.46;101302.28;6331927;22;20465;-74
2021/11/14 02:01:05;;;;;;;0.93;0.90;;;;;;;2.49;74.65;101301.41;6333842;22;20025;-72
2021/11/14 02:03:32;;;;;;;0.60;0.60;;;;;;;2.40;74.54;101286.81;6306383;22;20026;-73
2021/11/14 02:05:58;;;;;;;0.90;0.90;;;;;;;2.44;73.88;101290.25;6332173;22;20046;-74
2021/11/14 02:08:25;;;;;;;0.95;0.95;;;;;;;2.42;74.57;101289.41;6333355;22;20025;-73
2021/11/14 02:10:50;;;;;;;1.15;1.15;;;;;;;2.34;75.17;101285.94;6332157;22;20014;-73
2021/11/14 02:13:17;;;;;;;0.65;0.65;;;;;;;2.39;74.56;101289.41;6332170;22;20019;-73
2021/11/14 02:15:43;;;;;;;0.90;0.90;;;;;;;2.35;74.88;101293.69;6332060;22;20015;-74
2021/11/14 02:18:10;;;;;;;1.02;1.02;;;;;;;2.33;74.49;101294.53;6332066;22;20057;-72
2021/11/14 02:20:36;;;;;;;0.75;0.75;;;;;;;2.32;74.67;101304.00;6333610;22;20018;-72
2021/11/14 02:23:05;;;;;;;1.27;1.27;;;;;;;2.36;73.98;101310.84;6333529;22;20019;-73
2021/11/14 02:25:31;;;;;;;0.80;0.80;;;;;;;2.37;73.69;101306.56;6333536;22;20018;-73
2021/11/14 02:27:57;;;;;;;0.60;0.60;;;;;;;2.32;74.15;101295.41;6331914;22;20015;-73
2021/11/14 02:30:23;;;;;;;0.98;0.98;;;;;;;2.32;74.32;101298.00;6331922;22;20098;-73
2021/11/14 02:32:50;;;;;;;0.88;0.88;;;;;;;2.33;73.83;101303.13;6331783;22;20295;-71
2021/11/14 02:35:16;;;;;;;0.60;0.60;;;;;;;2.32;73.77;101309.16;6306059;22;20018;-71
2021/11/14 02:37:42;;;;;;;1.60;0.88;;;;;;;2.26;73.97;101303.13;6331777;22;20021;-70
2021/11/14 02:40:08;;;;;;;0.77;0.77;;;;;;;2.34;73.53;101314.28;6333599;22;20094;-71
2021/11/14 02:42:35;;;;;;;1.13;1.13;;;;;;;2.32;73.85;101304.00;6333651;22;20023;-70
2021/11/14 02:45:01;;;;;;;1.02;1.02;;;;;;;2.40;73.11;101319.47;6331864;22;20019;-70
2021/11/14 02:47:28;;;;;;;0.60;0.60;;;;;;;2.40;72.96;101322.91;6332077;22;20023;-70
2021/11/14 02:49:54;;;;;;;0.60;0.60;;;;;;;2.44;73.05;101323.75;6333684;22;20068;-70
2021/11/14 02:52:20;;;;;;;0.60;0.60;;;;;;;2.42;73.21;101322.91;6333298;22;20069;-70
2021/11/14 02:54:46;;;;;;;1.05;1.05;;;;;;;2.37;73.49;101314.31;6331695;22;20450;-70
2021/11/14 02:57:12;;;;;;;1.50;1.50;;;;;;;2.35;73.24;101313.44;6333507;22;20101;-71
2021/11/14 02:59:38;;;;;;;1.63;1.52;;;;;;;2.29;73.68;101308.28;6331461;22;20462;-70
2021/11/14 03:02:04;;;;;;;1.08;1.08;;;;;;;2.33;72.84;101310.00;6331205;22;20068;-70
2021/11/14 03:04:30;;;;;;;10.23;1.33;;;;;;;2.35;73.31;101318.59;6333448;22;20019;-70
2021/11/14 03:06:57;;;;;;;0.70;0.70;;;;;;;2.40;73.08;101312.59;6332963;22;20396;-70
2021/11/14 03:09:23;;;;;;;0.60;0.60;;;;;;;2.37;72.83;101301.41;6333403;22;20038;-70
2021/11/14 03:11:50;;;;;;;0.50;0.50;;;;;;;2.40;72.69;101309.16;6333040;22;20022;-71
2021/11/14 03:14:35;;;;;;;0.68;0.68;;;;;;;2.41;72.64;101301.44;6331726;22;20057;-71
2021/11/14 03:17:01;;;;;;;3.83;1.98;;;;;;;2.38;73.21;101303.16;6331454;22;20108;-71
2021/11/14 03:19:27;;;;;;;0.77;0.77;;;;;;;2.36;73.06;101299.69;6333153;22;20022;-70
2021/11/14 03:21:53;;;;;;;1.00;1.00;;;;;;;2.33;73.42;101304.84;6331405;22;20399;-71
2021/11/14 03:24:18;;;;;;;0.80;0.80;;;;;;;2.33;73.15;101294.53;6333182;22;20354;-70
2021/11/14 03:26:44;;;;;;;20.10;1.55;;;;;;;2.23;73.72;101287.63;6332812;22;20015;-70
2021/11/14 03:29:10;;;;;;;0.93;0.93;;;;;;;2.20;74.55;101293.66;6331582;22;20022;-70
2021/11/14 03:31:36;;;;;;;0.70;0.70;;;;;;;2.15;75.10;101297.94;6333016;22;20025;-70
2021/11/14 03:34:03;;;;;;;0.60;0.60;;;;;;;2.13;75.09;101296.22;6331541;22;20019;-71
2021/11/14 03:36:29;;;;;;;0.60;0.60;;;;;;;2.16;75.08;101302.22;6333243;22;20015;-71
2021/11/14 03:38:57;;;;;;;0.57;0.57;;;;;;;2.15;74.67;101297.09;6332691;22;20018;-71
2021/11/14 03:41:38;;;;;;;1.38;1.35;;;;;;;2.17;74.88;101297.94;6332903;22;20022;-70
2021/11/14 03:44:04;;;;;;;0.60;0.60;;;;;;;2.16;74.99;101293.66;6280453;22;20029;-70
2021/11/14 03:46:30;;;;;;;0.60;0.60;;;;;;;2.15;75.28;101303.09;6331448;22;20534;-70
2021/11/14 03:48:57;;;;;;;1.10;1.00;;;;;;;2.13;75.24;101296.22;6332421;22;20043;-71
2021/11/14 03:51:23;;;;;;;0.77;0.77;;;;;;;2.17;75.32;101303.09;6333087;22;20018;-72
2021/11/14 03:53:49;;;;;;;0.82;0.82;;;;;;;2.18;75.56;101299.66;6332612;22;20109;-72
2021/11/14 03:56:15;;;;;;;0.85;0.85;;;;;;;2.17;75.36;101297.94;6331217;22;20014;-71
2021/11/14 03:58:42;;;;;;;1.25;1.13;;;;;;;2.19;75.04;101303.97;6332645;22;20025;-72
2021/11/14 04:01:11;;;;;;;0.50;0.50;;;;;;;2.10;74.85;101292.78;6332359;22;20064;-71
2021/11/14 04:03:37;;;;;;;0.60;0.60;;;;;;;2.14;75.52;101305.66;6332892;22;20056;-71
2021/11/14 04:06:04;;;;;;;0.60;0.60;;;;;;;2.14;75.12;101303.09;6331048;22;20026;-70
2021/11/14 04:08:29;;;;;;;1.95;1.85;;;;;;;2.18;75.48;101304.81;6331111;22;20030;-72
2021/11/14 04:10:57;;;;;;;0.52;0.52;;;;;;;2.15;75.26;101294.50;6305040;22;20412;-71
2021/11/14 04:13:23;;;;;;;0.50;0.50;;;;;;;2.10;75.46;101292.78;6332283;22;20018;-71
2021/11/14 04:15:50;;;;;;;1.00;1.00;;;;;;;2.18;75.36;101299.66;6332183;22;20250;-70
2021/11/14 04:18:16;;;;;;;0.50;0.50;;;;;;;2.19;74.97;101296.25;6330702;22;20015;-72
2021/11/14 04:20:43;;;;;;;0.40;0.40;;;;;;;2.23;74.98;101308.25;6331903;22;20366;-72
2021/11/14 04:23:10;;;;;;;0.40;0.40;;;;;;;2.25;74.92;101311.72;6332679;22;20548;-71
2021/11/14 04:25:36;;;;;;;0.75;0.75;;;;;;;2.26;74.54;101303.13;6331008;22;20037;-71
2021/11/14 04:28:02;;;;;;;0.88;0.88;;;;;;;2.25;74.28;101301.41;6332487;22;20049;-70
2021/11/14 04:30:29;;;;;;;0.68;0.68;;;;;;;2.26;74.49;101303.13;6330872;22;20410;-70
2021/11/14 04:32:55;;;;;;;1.40;1.40;;;;;;;2.29;74.40;101306.53;6330791;22;20024;-70
2021/11/14 04:35:21;;;;;;;0.63;0.63;;;;;;;2.24;74.22;101299.66;6330671;22;20023;-70
2021/11/14 04:37:48;;;;;;;0.80;0.80;;;;;;;2.25;74.40;101301.41;6330865;22;20021;-70
2021/11/14 04:40:15;;;;;;;0.70;0.70;;;;;;;2.26;74.29;101306.53;6332560;22;20440;-71
2021/11/14 04:42:41;;;;;;;0.60;0.60;;;;;;;2.24;75.59;101305.69;6332376;22;20426;-73
2021/11/14 04:45:08;;;;;;;0.70;0.70;;;;;;;2.25;76.32;101309.13;6332377;22;20397;-71
2021/11/14 04:47:34;;;;;;;0.98;0.98;;;;;;;2.23;75.04;101308.25;6330256;22;20422;-72
2021/11/14 04:50:00;;;;;;;1.27;1.27;;;;;;;2.20;75.78;101309.09;6330878;22;20370;-71
2021/11/14 04:52:26;;;;;;;0.50;0.50;;;;;;;2.23;74.39;101303.09;6330796;22;20015;-70
2021/11/14 04:54:52;;;;;;;0.80;0.80;;;;;;;2.28;75.88;101302.28;6331733;22;20022;-71
2021/11/14 04:57:18;;;;;;;0.93;0.93;;;;;;;2.24;76.10;101310.84;6330935;22;20018;-70
2021/11/14 04:59:44;;;;;;;2.25;2.17;;;;;;;2.20;76.77;101297.94;6330369;22;20098;-72
2021/11/14 05:02:10;;;;;;;1.90;1.58;;;;;;;2.19;76.92;101306.53;6332355;22;20096;-72
2021/11/14 05:04:36;;;;;;;1.70;1.70;;;;;;;2.14;77.38;101308.22;6332641;22;20014;-72
2021/11/14 05:07:02;;;;;;;1.02;1.02;;;;;;;2.09;76.19;101313.38;6332245;22;20019;-70
2021/11/14 05:09:28;;;;;;;0.98;0.98;;;;;;;2.11;77.15;101316.81;6331135;22;20060;-71
2021/11/14 05:11:54;;;;;;;1.85;1.75;;;;;;;2.09;77.11;101306.50;6332067;22;20117;-72
2021/11/14 05:14:21;;;;;;;1.65;1.33;;;;;;;2.12;76.72;101308.25;6332057;22;20049;-71
2021/11/14 05:16:47;;;;;;;1.88;1.88;;;;;;;2.15;76.17;101315.97;6332246;22;20610;-71
2021/11/14 05:19:13;;;;;;;1.00;1.00;;;;;;;2.15;76.16;101320.25;6332316;22;20018;-72
2021/11/14 05:21:39;;;;;;;0.90;0.90;;;;;;;2.22;75.57;101324.59;6332246;22;20117;-71
2021/11/14 05:24:06;;;;;;;1.00;1.00;;;;;;;2.27;75.63;101330.59;6332006;22;20029;-70
2021/11/14 05:26:33;;;;;;;1.10;1.10;;;;;;;2.23;75.64;101318.56;6330393;22;20018;-72
2021/11/14 05:29:00;;;;;;;1.15;1.15;;;;;;;2.26;75.88;101328.91;6331851;22;20249;-72
2021/11/14 05:31:25;;;;;;;2.35;2.15;;;;;;;2.23;75.87;101324.56;6332278;22;20474;-71
2021/11/14 05:33:51;;;;;;;1.13;1.13;;;;;;;2.23;76.34;101323.69;6331959;22;20021;-69
2021/11/14 05:36:18;;;;;;;0.90;0.90;;;;;;;2.14;76.06;101311.66;6330629;22;20019;-71
2021/11/14 05:38:44;;;;;;;0.60;0.60;;;;;;;2.20;76.27;101326.28;6332138;22;20425;-72
2021/11/14 05:41:09;;;;;;;1.15;1.15;;;;;;;2.21;76.12;101336.59;6330384;22;20080;-71
2021/11/14 05:43:36;;;;;;;1.55;1.55;;;;;;;2.20;76.38;101326.28;6332555;22;20015;-71
2021/11/14 05:46:05;;;;;;;1.35;1.35;;;;;;;2.19;76.67;101325.44;6331786;22;20466;-71
2021/11/14 05:48:31;;;;;;;2.55;2.45;;;;;;;2.19;77.57;101316.84;6332046;22;20029;-72
2021/11/14 05:50:59;;;;;;;2.75;2.65;;;;;;;2.02;78.45;101316.78;6325041;22;20026;-71
2021/11/14 05:53:25;;;;;;;1.95;1.85;;;;;;;2.10;77.97;101328.81;6329225;22;20622;-71
2021/11/14 05:55:51;;;;;;;3.10;1.80;;;;;;;2.10;78.64;101328.81;6328550;22;20064;-73
2021/11/14 05:58:22;;;;;;;3.63;2.03;;;;;;;2.05;79.39;101339.97;6330326;22;20015;-72
2021/11/14 06:00:58;;;;;;;2.17;2.08;;;;;;;2.05;80.02;101324.53;6303379;22;20068;-73
2021/11/14 06:03:38;;;;;;;0.95;0.95;;;;;;;2.00;80.06;101321.91;6331205;22;20046;-72
2021/11/14 06:06:05;;;;;;;1.88;1.77;;;;;;;2.13;80.00;101334.88;6330736;22;20097;-72
2021/11/14 06:08:31;;;;;;;1.52;1.42;;;;;;;2.13;80.01;101324.56;6329538;22;20015;-72
2021/11/14 06:10:58;;;;;;;2.08;1.98;;;;;;;2.04;80.51;101318.50;6329293;22;20089;-71
2021/11/14 06:13:25;;;;;;;1.60;1.60;;;;;;;2.05;80.75;101325.41;6329501;22;20053;-71
2021/11/14 06:15:51;;;;;;;1.00;1.00;;;;;;;2.10;80.81;101327.97;6303369;22;20098;-70
2021/11/14 06:18:17;;;;;;;1.80;1.73;;;;;;;2.03;80.90;101321.94;6303665;22;20018;-72
2021/11/14 06:20:43;;;;;;;1.25;1.25;;;;;;;2.09;81.20;101327.09;6303720;22;20019;-73
2021/11/14 06:23:10;;;;;;;8.57;2.63;;;;;;;2.05;81.13;101320.25;6330777;22;20027;-71
2021/11/14 06:25:35;;;;;;;1.20;1.20;;;;;;;2.10;81.16;101326.25;6303334;22;20027;-72
2021/11/14 06:28:02;;;;;;;1.30;1.30;;;;;;;2.15;80.88;101330.56;6331060;22;20019;-69
2021/11/14 06:30:28;;;;;;;1.58;1.58;;;;;;;2.15;81.36;101330.56;6329501;22;20486;-71
2021/11/14 06:32:54;;;;;;;1.45;1.45;;;;;;;2.08;81.47;101325.41;6330863;22;20018;-71
2021/11/14 06:35:21;;;;;;;1.10;1.10;;;;;;;2.11;81.17;101332.28;6329268;22;20023;-72
2021/11/14 06:37:47;;;;;;;1.90;1.83;;;;;;;2.18;81.55;101335.72;6331008;22;20144;-70
2021/11/14 06:40:13;;;;;;;1.98;1.92;;;;;;;2.16;81.69;101338.28;6332554;22;20019;-73
2021/11/14 06:42:40;;;;;;;2.40;2.20;;;;;;;2.19;81.70;101337.47;6333195;22;20022;-71
2021/11/14 06:45:06;;;;;;;2.00;1.90;;;;;;;2.20;81.85;101340.03;6333406;22;20018;-72
2021/11/14 06:47:33;;;;;;;4.00;3.08;;;;;;;2.17;82.24;101339.16;6331551;22;20491;-71
2021/11/14 06:49:59;;;;;;;2.30;2.17;;;;;;;2.15;82.77;101335.72;6332377;22;20049;-73
2021/11/14 06:52:25;;;;;;;3.70;3.45;;;;;;;2.16;82.61;101337.44;6331861;22;20465;-73
2021/11/14 06:54:51;;;;;;;1.85;1.75;;;;;;;2.17;83.07;101339.16;6332561;22;20034;-69
2021/11/14 06:57:19;;;;;;;1.50;1.50;;;;;;;2.21;82.29;101336.59;6330053;22;20018;-71
2021/11/14 06:59:46;;;;;;;2.03;1.92;;;;;;;2.25;82.19;101338.34;6331574;22;20015;-71
2021/11/14 07:02:12;;;;;;;2.55;2.45;;;;;;;2.22;82.29;101324.59;6304295;22;20025;-72
2021/11/14 07:04:38;;;;;;;1.13;1.13;;;;;;;2.28;82.48;101340.91;6330157;22;20019;-72
2021/11/14 07:07:05;;;;;;;2.08;1.98;;;;;;;2.35;82.11;101341.78;6278245;22;20022;-72
2021/11/14 07:09:31;;;;;;;1.45;1.45;;;;;;;2.35;81.90;101340.09;6329449;22;20018;-72
2021/11/14 07:11:57;;;;;;;1.85;1.83;;;;;;;2.43;81.73;101337.50;6329671;22;20089;-71
2021/11/14 07:14:24;;;;;;;2.78;2.67;;;;;;;2.41;81.78;101344.38;6330109;22;20381;-72
2021/11/14 07:16:50;;;;;;;1.65;1.55;;;;;;;2.41;81.17;101339.22;6331191;22;20037;-72
2021/11/14 07:19:16;;;;;;;2.05;1.95;;;;;;;2.43;80.86;101333.22;6330748;22;20019;-73
2021/11/14 07:21:42;;;;;;;2.42;2.22;;;;;;;2.45;79.86;101334.09;6331287;22;20050;-73
2021/11/14 07:24:08;;;;;;;1.67;1.67;;;;;;;2.54;79.73;101335.81;6330499;22;20015;-71
2021/11/14 07:26:34;;;;;;;1.02;1.02;;;;;;;2.63;79.12;101335.81;6330420;22;20025;-73
2021/11/14 07:29:00;;;;;;;2.92;2.60;;;;;;;2.57;78.92;101338.41;6277505;22;20023;-73
2021/11/14 07:31:26;;;;;;;0.70;0.70;;;;;;;2.59;79.53;101345.25;6328730;22;20023;-72
2021/11/14 07:33:52;;;;;;;3.25;2.95;;;;;;;2.56;79.10;101339.25;6327921;22;20019;-72
2021/11/14 07:36:18;;;;;;;1.50;1.50;;;;;;;2.55;79.05;101342.69;6330313;22;20092;-70
2021/11/14 07:38:44;;;;;;;6.53;3.15;;;;;;;2.57;79.29;101340.97;6330296;22;20015;-72
2021/11/14 07:41:10;;;;;;;1.23;1.23;;;;;;;2.58;79.21;101342.69;6330110;22;20023;-72
2021/11/14 07:43:36;;;;;;;2.15;2.05;;;;;;;2.53;79.20;101344.41;6330328;22;20030;-72
2021/11/14 07:46:03;;;;;;;2.97;2.42;;;;;;;2.50;80.38;101341.81;6330404;22;20014;-71
2021/11/14 07:48:32;;;;;;;2.05;1.95;;;;;;;2.48;80.26;101340.97;6330695;22;20043;-72
2021/11/14 07:50:58;;;;;;;1.50;1.50;;;;;;;2.51;80.31;101341.84;6303864;22;20065;-72
2021/11/14 07:53:25;;;;;;;2.17;2.08;;;;;;;2.53;79.91;101344.41;6330570;22;20023;-72
2021/11/14 07:55:51;;;;;;;23.05;4.78;;;;;;;2.46;80.72;101342.66;6328584;22;20071;-73
2021/11/14 07:58:17;;;;;;;2.15;2.05;;;;;;;2.50;81.03;101344.38;6328915;22;20015;-73
2021/11/14 08:00:43;;;;;;;1.90;1.90;;;;;;;2.54;80.85;101354.72;6328977;22;20049;-72
2021/11/14 08:03:12;;;;;;;1.65;1.58;;;;;;;2.53;80.82;101350.41;6328383;22;20345;-72
2021/11/14 08:05:39;;;;;;;1.35;1.35;;;;;;;2.56;81.10;101342.69;6330679;22;20354;-72
2021/11/14 08:08:05;;;;;;;3.00;2.80;;;;;;;2.56;81.63;101345.25;6329828;22;20026;-73
2021/11/14 08:10:33;;;;;;;2.40;2.30;;;;;;;2.53;81.68;101344.41;6328066;22;20019;-71
2021/11/14 08:13:02;;;;;;;2.13;2.03;;;;;;;2.52;82.08;101342.69;6328291;22;20029;-73
2021/11/14 08:15:28;;;;;;;2.30;2.20;;;;;;;2.52;82.49;101342.69;6328827;22;20029;-72
2021/11/14 08:17:54;;;;;;;2.28;2.15;;;;;;;2.55;82.34;101346.09;6327126;22;20072;-74
2021/11/14 08:20:20;;;;;;;1.10;1.10;;;;;;;2.60;82.10;101346.13;6329298;22;20023;-72
2021/11/14 08:22:46;;;;;;;3.90;2.67;;;;;;;2.60;81.82;101338.41;6327046;22;20049;-72
2021/11/14 08:25:14;;;;;;;1.48;1.48;;;;;;;2.59;82.47;101331.50;6326352;22;20023;-71
2021/11/14 08:27:40;;;;;;;1.98;1.80;;;;;;;2.62;81.62;101334.09;6327164;22;20026;-72
2021/11/14 08:30:09;;;;;;;3.78;1.85;;;;;;;2.63;81.43;101321.22;6299908;22;20396;-72
2021/11/14 08:32:35;;;;;;;2.05;1.70;;;;;;;2.72;82.14;101330.66;6325526;22;20015;-72
2021/11/14 08:35:01;;;;;;;2.50;2.33;;;;;;;2.72;81.07;101325.50;6330475;22;20040;-70
2021/11/14 08:37:28;;;;;;;1.30;1.25;;;;;;;2.69;80.76;101297.16;6331021;22;20025;-71
2021/11/14 08:39:54;;;;;;;1.63;1.52;;;;;;;2.77;79.80;101318.66;6325746;22;20042;-73
2021/11/14 08:42:20;;;;;;;1.27;1.27;;;;;;;2.74;79.48;101318.66;6327165;22;20413;-73
2021/11/14 08:44:46;;;;;;;1.13;1.13;;;;;;;2.79;79.04;101310.91;6326052;22;20100;-73
2021/11/14 08:47:13;;;;;;;0.88;0.88;;;;;;;2.74;78.68;101303.19;6326522;22;20444;-73
2021/11/14 08:49:39;;;;;;;1.23;1.23;;;;;;;2.90;78.66;101304.91;6325881;22;20029;-72
2021/11/14 08:52:06;;;;;;;1.55;1.45;;;;;;;2.88;77.69;101298.88;6329147;22;20025;-72
2021/11/14 08:54:32;;;;;;;1.35;1.35;;;;;;;2.90;77.92;101299.75;6332181;22;20040;-72
2021/11/14 08:56:58;;;;;;;1.45;1.35;;;;;;;2.95;76.57;101298.00;6332031;22;20473;-73
2021/11/14 08:59:25;;;;;;;0.77;0.77;;;;;;;2.95;76.48;101298.00;6305082;22;20014;-72
2021/11/14 09:01:51;;;;;;;0.68;0.68;;;;;;;2.94;76.50;101292.88;6332117;22;20022;-72
2021/11/14 09:04:18;;;;;;;1.40;1.40;;;;;;;3.00;76.06;101292.84;6330848;22;20018;-71
2021/11/14 09:06:44;;;;;;;1.23;1.23;;;;;;;2.95;75.13;101290.28;6331438;22;20025;-72
2021/11/14 09:09:10;;;;;;;1.25;1.25;;;;;;;2.82;75.12;101282.53;6329483;22;20018;-73
2021/11/14 09:11:37;;;;;;;0.90;0.90;;;;;;;2.87;74.91;101276.53;6326222;22;20080;-72
2021/11/14 09:14:03;;;;;;;1.35;1.35;;;;;;;2.96;74.27;101288.56;6330023;22;20019;-73
2021/11/14 09:16:30;;;;;;;1.00;1.00;;;;;;;3.01;74.52;101289.44;6331184;22;20019;-72
2021/11/14 09:18:56;;;;;;;2.47;2.38;;;;;;;2.96;74.84;101286.84;6330678;22;20432;-72
2021/11/14 09:21:22;;;;;;;1.17;1.17;;;;;;;3.01;73.98;101292.00;6330763;22;20018;-73
2021/11/14 09:23:49;;;;;;;3.75;1.33;;;;;;;3.00;73.45;101275.66;6329466;22;20019;-72
2021/11/14 09:26:15;;;;;;;1.35;1.25;;;;;;;2.99;74.48;101279.09;6328756;22;20018;-72
2021/11/14 09:28:42;;;;;;;9.43;3.35;;;;;;;3.10;74.77;101272.22;6330204;22;20101;-74
2021/11/14 09:31:10;;;;;;;1.05;1.05;;;;;;;3.13;73.63;101279.09;6328316;22;20018;-72
2021/11/14 09:33:36;;;;;;;1.13;1.13;;;;;;;3.05;73.67;101266.19;6328842;22;20536;-72
2021/11/14 09:36:03;;;;;;;1.25;1.25;;;;;;;3.05;73.82;101266.19;6303069;22;20026;-74
2021/11/14 09:38:29;;;;;;;0.70;0.70;;;;;;;3.08;73.99;101267.91;6329273;22;20018;-72
2021/11/14 09:40:58;;;;;;;1.02;1.02;;;;;;;3.03;74.39;101259.31;6328588;22;20019;-72
2021/11/14 09:43:24;;;;;;;1.20;1.20;;;;;;;3.04;74.70;101266.19;6303687;22;20537;-72
2021/11/14 09:45:51;;;;;;;0.88;0.88;;;;;;;2.95;75.21;101256.75;6328678;22;20042;-72
2021/11/14 09:48:19;;;;;;;1.60;1.60;;;;;;;2.89;74.27;101261.03;6331174;22;20015;-72
2021/11/14 09:50:45;;;;;;;0.60;0.60;;;;;;;2.81;74.73;101263.66;6302997;22;20095;-72
2021/11/14 09:53:12;;;;;;;1.15;1.15;;;;;;;2.76;75.78;101257.63;6330558;22;20019;-72
2021/11/14 09:55:38;;;;;;;0.65;0.65;;;;;;;2.77;75.75;101266.22;6328717;22;20022;-72
2021/11/14 09:58:05;;;;;;;2.50;2.40;;;;;;;2.78;76.49;101262.78;6329906;22;20084;-72
2021/11/14 10:00:31;;;;;;;1.90;1.80;;;;;;;2.80;76.58;101268.78;6277692;22;20019;-72
2021/11/14 10:02:57;;;;;;;1.55;1.45;;;;;;;2.83;76.33;101261.91;6330186;22;20018;-72
2021/11/14 10:05:23;;;;;;;4.80;1.90;;;;;;;2.87;76.58;101255.03;6330794;22;20093;-72
2021/11/14 10:07:59;;;;;;;2.03;1.92;;;;;;;2.83;76.67;101250.75;6330328;22;20019;-72
2021/11/14 10:10:26;;;;;;;1.50;1.50;;;;;;;2.85;77.13;101244.72;6331439;22;20018;-72
2021/11/14 10:12:52;;;;;;;0.90;0.82;;;;;;;2.91;76.72;101242.13;6332981;22;20489;-72
2021/11/14 10:15:20;;;;;;;1.73;1.67;;;;;;;2.87;76.69;101243.00;6305748;22;20019;-72
2021/11/14 10:17:56;;;;;;;0.98;0.98;;;;;;;2.85;77.41;101231.81;6331961;22;20014;-72
2021/11/14 10:20:27;;;;;;;1.00;1.00;;;;;;;2.89;77.07;101235.25;6332971;22;20536;-73
2021/11/14 10:22:55;;;;;;;0.85;0.85;;;;;;;2.85;77.06;101224.09;6331562;22;20029;-72
2021/11/14 10:25:21;;;;;;;1.08;1.08;;;;;;;2.95;77.05;101236.09;6333450;22;20042;-73
2021/11/14 10:27:53;;;;;;;1.73;1.63;;;;;;;3.01;77.27;101238.66;6333209;22;20018;-72
2021/11/14 10:30:24;;;;;;;2.35;2.25;;;;;;;3.01;77.16;101241.25;6305919;22;20485;-72
2021/11/14 10:32:55;;;;;;;0.55;0.55;;;;;;;3.04;77.08;101230.91;6333459;22;20058;-73
2021/11/14 10:35:23;;;;;;;0.98;0.98;;;;;;;3.08;77.17;101226.63;6331763;22;20029;-72
2021/11/14 10:37:49;;;;;;;1.10;1.10;;;;;;;3.02;77.05;101224.91;6332976;22;20771;-72
2021/11/14 10:40:21;;;;;;;12.60;1.63;;;;;;;2.92;77.03;101215.47;6333551;22;20014;-73
2021/11/14 10:42:49;;;;;;;1.23;1.23;;;;;;;2.97;76.74;101218.94;6333224;22;20084;-71
2021/11/14 10:45:16;;;;;;;1.92;1.92;;;;;;;3.01;76.73;101217.19;6332811;22;20482;-69
2021/11/14 10:47:42;;;;;;;2.03;1.92;;;;;;;3.05;76.65;101217.16;6330011;22;20015;-71
2021/11/14 10:50:13;;;;;;;1.13;1.13;;;;;;;3.01;76.86;101215.44;6329965;22;20026;-71
2021/11/14 10:52:51;;;;;;;1.25;1.25;;;;;;;3.02;76.68;101219.75;6304548;22;20019;-73
2021/11/14 10:55:17;;;;;;;1.13;1.13;;;;;;;3.02;77.08;101222.34;6332706;22;20088;-71
2021/11/14 10:57:43;;;;;;;5.07;2.17;;;;;;;2.92;76.52;101220.63;6305238;22;20144;-70
2021/11/14 11:00:11;;;;;;;43.88;2.05;;;;;;;2.84;77.54;101221.53;6332710;22;20450;-72
2021/11/14 11:02:41;;;;;;;0.65;0.65;;;;;;;2.65;78.93;101214.69;6332932;22;20676;-71
2021/11/14 11:05:16;;;;;;;0.47;0.47;;;;;;;2.51;80.33;101219.84;6331383;22;20015;-71
2021/11/14 11:07:53;;;;;;;1.02;1.02;;;;;;;2.44;81.27;101221.56;6333375;22;20026;-70
2021/11/14 11:10:25;;;;;;;0.80;0.80;;;;;;;2.46;82.50;101217.25;6331743;22;20110;-72
2021/11/14 11:12:51;;;;;;;1.20;1.20;;;;;;;2.43;83.53;101224.13;6331557;22;20026;-72
2021/11/14 11:15:17;;;;;;;0.70;0.70;;;;;;;2.31;84.31;101208.66;6329717;22;20386;-72
2021/11/14 11:17:49;;;;;;;0.70;0.70;;;;;;;2.33;85.00;101224.97;6331671;22;20015;-72
2021/11/14 11:20:18;;;;;;;1.48;1.48;;;;;;;2.33;85.26;101222.38;6331637;22;20308;-71
2021/11/14 11:22:50;;;;;;;1.20;1.20;;;;;;;2.39;84.73;101218.09;6330623;22;20018;-71
2021/11/14 11:25:36;;;;;;;0.98;0.98;;;;;;;2.33;84.42;101223.25;6331029;22;20099;-71
2021/11/14 11:28:04;;;;;;;3.30;3.05;;;;;;;2.35;83.77;101210.38;6330733;22;20433;-71
2021/11/14 11:30:39;;;;;;;0.68;0.68;;;;;;;2.25;83.52;101206.09;6331284;22;20018;-71
2021/11/14 11:33:05;;;;;;;1.67;1.63;;;;;;;2.23;84.71;101215.50;6330614;22;20018;-71